EA5AFP-10 Ador ES current weather conditions

sailwx.info

Wind from 270 at 3 knots gusting 7

Air temperature 22.8° C
Dewpoint -14.8° C

Last reported at 2020-Sep-19 08:02 UTC.
Time now 2020-Sep-19 08:30 UTC

Location: N 38°55' W 000°13'.
View on Google Maps.

See reports from other nearby stations

  
Tides and Currents Weather Stations Pressure Air Temp Water Temp Dewpoint Dewpoint Depression Visibility Wind Speed Wind Dir Waves Ship Positions
date/time (UTC)wind fromknots sea level pressurealtimeterstation pressurevisibilityair tempwater tempwave heightnotes
2020-Sep-19 08:02 270 3 gusting 7 22.8
2020-Sep-19 07:52 270 5 gusting 10 22.2
2020-Sep-19 07:42 270 2 gusting 5 22.2
2020-Sep-19 07:32 270 4 gusting 11 21.7
2020-Sep-19 07:23 225 5 gusting 7 22.2
2020-Sep-19 07:14 270 3 gusting 6 21.7
2020-Sep-19 07:06 270 2 gusting 5 21.7
2020-Sep-19 06:56 270 2 gusting 5 21.1
2020-Sep-19 06:48 270 2 gusting 3 20.6
2020-Sep-19 06:39 270 1 gusting 3 20.6
2020-Sep-19 06:31 270 3 gusting 7 20.0
2020-Sep-19 06:23 270 2 gusting 3 20.0
2020-Sep-19 06:13 270 3 gusting 6 20.0
2020-Sep-19 06:04 270 2 gusting 3 19.4
2020-Sep-19 05:56 270 1 gusting 3 19.4
2020-Sep-19 05:48 270 2 gusting 4 19.4
2020-Sep-19 05:39 270 2 gusting 4 19.4
2020-Sep-19 05:31 270 3 gusting 6 20.0
2020-Sep-19 05:22 270 3 gusting 6 20.0
2020-Sep-19 05:13 20.0
2020-Sep-19 05:04 315 2 gusting 5 19.4
2020-Sep-19 04:55 270 0 gusting 2 18.9
2020-Sep-19 04:46 270 0 gusting 2 18.9
2020-Sep-19 04:37 090 18.9
2020-Sep-19 04:28 270 0 gusting 2 19.4
2020-Sep-19 04:19 225 2 gusting 3 18.9
2020-Sep-19 04:10 270 18.9
2020-Sep-19 04:00 18.3
2020-Sep-19 03:50 18.3
2020-Sep-19 03:41 270 0 gusting 2 18.3
2020-Sep-19 03:32 270 18.3
2020-Sep-19 03:23 270 18.3
2020-Sep-19 03:13 270 0 gusting 2 18.3
2020-Sep-19 03:05 18.3
2020-Sep-19 02:56 18.3
2020-Sep-19 02:47 18.3
2020-Sep-19 02:37 18.9
2020-Sep-19 02:27 090 19.4
2020-Sep-19 02:08 19.4
2020-Sep-19 01:58 270 18.9
2020-Sep-19 01:50 270 0 gusting 2 18.9
2020-Sep-19 01:41 270 1 gusting 2 19.4
2020-Sep-19 01:32 19.4
2020-Sep-19 01:22 19.4
2020-Sep-19 01:13 19.4
2020-Sep-19 01:05 180 20.0
2020-Sep-19 00:56 225 1 gusting 2 20.0
2020-Sep-19 00:46 270 2 gusting 6 20.0
2020-Sep-19 00:37 20.0
2020-Sep-19 00:28 180 20.0
2020-Sep-19 00:18 20.0
2020-Sep-19 00:09 20.0
2020-Sep-19 00:01 20.6
2020-Sep-18 23:52 20.6
2020-Sep-18 23:42 20.6
2020-Sep-18 23:33 225 0 gusting 2 20.6
2020-Sep-18 23:24 270 0 gusting 3 20.6
2020-Sep-18 23:16 20.6
2020-Sep-18 23:06 20.6
2020-Sep-18 22:58 20.6
2020-Sep-18 22:50 20.6
2020-Sep-18 22:42 20.6
2020-Sep-18 22:32 270 20.6
2020-Sep-18 22:24 21.1
2020-Sep-18 22:14 21.1
2020-Sep-18 22:04 21.1
2020-Sep-18 21:54 135 21.7
2020-Sep-18 21:46 180 1 gusting 2 21.7
2020-Sep-18 21:36 22.2
2020-Sep-18 21:27 22.2
2020-Sep-18 21:17 270 1 gusting 3 22.2
2020-Sep-18 21:08 270 5 gusting 7 22.2
2020-Sep-18 20:59 315 2 gusting 6 22.2
2020-Sep-18 20:50 270 2 gusting 3 22.8
2020-Sep-18 20:40 270 0 gusting 2 22.8
2020-Sep-18 20:32 315 2 gusting 4 22.8
2020-Sep-18 20:23 270 2 gusting 3 22.8
2020-Sep-18 20:14 270 1 gusting 2 22.2
2020-Sep-18 20:04 270 22.8
2020-Sep-18 19:56 270 1 gusting 2 22.8
2020-Sep-18 19:47 270 0 gusting 2 22.8
2020-Sep-18 19:39 270 23.3
2020-Sep-18 19:30 315 23.9
2020-Sep-18 19:22 23.9
2020-Sep-18 19:13 23.9
2020-Sep-18 19:03 24.4
2020-Sep-18 18:54 24.4
2020-Sep-18 18:46 270 0 gusting 2 24.4
2020-Sep-18 18:36 045 24.4
2020-Sep-18 18:26 270 2 gusting 5 24.4
2020-Sep-18 18:18 270 1 gusting 2 25.0
2020-Sep-18 18:10 270 0 gusting 2 25.0
2020-Sep-18 18:01 225 5 gusting 10 25.0
2020-Sep-18 17:52 270 6 gusting 10 25.0
2020-Sep-18 17:44 270 2 gusting 5 25.6
2020-Sep-18 17:35 270 4 gusting 7 25.6
2020-Sep-18 17:27 270 4 gusting 6 25.6
2020-Sep-18 17:17 26.1
2020-Sep-18 17:09 270 3 gusting 6 26.1
2020-Sep-18 17:01 225 1 gusting 5 26.1
2020-Sep-18 16:51 225 5 gusting 10 26.7
2020-Sep-18 16:43 315 2 gusting 5 26.7
2020-Sep-18 16:34 270 1 gusting 2 26.7
2020-Sep-18 16:26 180 1 gusting 2 27.2
2020-Sep-18 16:17 180 3 gusting 6 27.2
2020-Sep-18 16:08 180 0 gusting 2 27.2
2020-Sep-18 15:59 180 2 gusting 4 27.2
2020-Sep-18 15:50 180 3 gusting 7 27.2
2020-Sep-18 15:41 135 2 gusting 4 27.2
2020-Sep-18 15:32 225 26.7
2020-Sep-18 15:15 26.1
2020-Sep-18 15:07 26.1
2020-Sep-18 14:57 25.6
2020-Sep-18 14:49 25.0
2020-Sep-18 14:40 045 0 gusting 3 25.0
2020-Sep-18 14:30 045 24.4
2020-Sep-18 14:22 23.9
2020-Sep-18 14:14 135 1 gusting 3 23.9
2020-Sep-18 14:05 180 2 gusting 7 23.3
2020-Sep-18 13:55 180 2 gusting 3 22.8
2020-Sep-18 13:46 090 0 gusting 5 23.3
2020-Sep-18 13:37 135 8 gusting 14 22.8
2020-Sep-18 13:27 270 0 gusting 2 22.8
2020-Sep-18 13:18 090 1 gusting 4 22.8
2020-Sep-18 13:09 270 0 gusting 2 22.8
2020-Sep-18 12:59 090 22.8
2020-Sep-18 12:50 22.2
2020-Sep-18 12:41 22.2
2020-Sep-18 12:32 22.2
2020-Sep-18 12:24 045 0 gusting 1 22.2
2020-Sep-18 12:14 22.2
2020-Sep-18 12:05 315 0 gusting 1 22.8
2020-Sep-18 11:57 22.8
2020-Sep-18 11:48 090 22.8
2020-Sep-18 11:39 22.8
2020-Sep-18 11:30 090 0 gusting 2 22.8
2020-Sep-18 11:22 22.8
2020-Sep-18 11:13 22.8
2020-Sep-18 11:03 22.2
2020-Sep-18 10:54 315 22.2
2020-Sep-18 10:44 270 1 gusting 3 22.2
2020-Sep-18 10:36 22.2
2020-Sep-18 10:27 22.2
2020-Sep-18 10:19 22.2
2020-Sep-18 10:10 21.7
2020-Sep-18 10:00 315 1 gusting 4 21.7
2020-Sep-18 09:51 270 2 gusting 4 21.7
2020-Sep-18 09:42 270 0 gusting 2 21.7
2020-Sep-18 09:32 21.1
2020-Sep-18 09:24 20.6
2020-Sep-18 09:15 090 20.6
2020-Sep-18 09:07 20.6
2020-Sep-18 08:57 180 0 gusting 1 20.0
2020-Sep-18 08:48 19.4
2020-Sep-18 08:40 19.4
2020-Sep-18 08:30 270 19.4
2020-Sep-18 08:21 18.9
2020-Sep-18 08:11 18.9
2020-Sep-18 08:01 180 1 gusting 2 18.9
2020-Sep-18 07:52 270 0 gusting 2 18.9
2020-Sep-18 07:44 18.3
2020-Sep-18 07:34 270 3 gusting 5 18.3
2020-Sep-18 07:25 270 4 gusting 7 18.9
2020-Sep-18 07:17 270 5 gusting 6 18.9
2020-Sep-18 07:00 270 7 gusting 13 19.4
2020-Sep-18 06:51 270 7 gusting 13 19.4
2020-Sep-18 06:42 270 7 gusting 10 19.4
2020-Sep-18 06:34 270 5 gusting 11 20.0
2020-Sep-18 06:26 270 6 gusting 13 20.0
2020-Sep-18 06:17 270 9 gusting 18 20.0
2020-Sep-18 06:08 225 4 gusting 12 20.0
2020-Sep-18 05:59 270 6 gusting 9 20.0
2020-Sep-18 05:50 225 7 gusting 13 20.6
2020-Sep-18 05:41 270 4 gusting 10 21.7
2020-Sep-18 05:31 270 12 gusting 19 21.7
2020-Sep-18 05:22 22.2
2020-Sep-18 05:13 180 3 gusting 6 22.8
2020-Sep-18 05:05 180 4 gusting 9 23.3
2020-Sep-18 04:56 270 2 gusting 7 23.3
2020-Sep-18 04:46 225 4 gusting 10 23.3
2020-Sep-18 04:37 225 3 gusting 8 23.3
2020-Sep-18 04:27 270 2 gusting 7 22.8
2020-Sep-18 04:19 270 0 gusting 2 22.8
2020-Sep-18 04:10 270 22.8
2020-Sep-18 04:02 270 22.8
2020-Sep-18 03:52 180 2 gusting 4 22.8
2020-Sep-18 03:43 180 2 gusting 5 22.8
2020-Sep-18 03:34 270 2 gusting 5 22.8
2020-Sep-18 03:26 270 3 gusting 6 22.8
2020-Sep-18 03:17 270 3 gusting 6 23.3
2020-Sep-18 03:07 270 2 gusting 5 23.3
2020-Sep-18 02:58 270 4 gusting 6 23.3
2020-Sep-18 02:49 23.3
2020-Sep-18 02:40 315 5 gusting 10 23.3
2020-Sep-18 02:30 315 6 gusting 10 23.3
2020-Sep-18 02:22 315 6 gusting 10 23.3
2020-Sep-18 02:13 270 4 gusting 6 23.3
2020-Sep-18 02:03 270 4 gusting 6 23.3
2020-Sep-18 01:55 270 8 gusting 13 23.3
2020-Sep-18 01:46 270 5 gusting 8 23.3
2020-Sep-18 01:37 270 6 gusting 10 23.3
2020-Sep-18 01:29 270 5 gusting 9 23.3
2020-Sep-18 01:19 315 4 gusting 7 22.8
2020-Sep-18 01:09 270 5 gusting 10 22.8
2020-Sep-18 01:01 270 5 gusting 9 22.8
2020-Sep-18 00:53 270 5 gusting 8 22.8
2020-Sep-18 00:44 270 4 gusting 8 23.3
2020-Sep-18 00:34 270 6 gusting 10 23.3
2020-Sep-18 00:26 23.3
2020-Sep-18 00:18 315 5 gusting 8 23.3
2020-Sep-18 00:08 270 5 gusting 8 23.3
2020-Sep-18 00:00 270 5 gusting 8 23.3
2020-Sep-17 23:50 315 6 gusting 10 23.3
2020-Sep-17 23:42 315 5 gusting 9 23.3
2020-Sep-17 23:32 270 5 gusting 7 23.3
2020-Sep-17 23:22 270 3 gusting 7 23.3
2020-Sep-17 23:15 270 2 gusting 5 23.3
2020-Sep-17 23:06 270 3 gusting 5 23.3
2020-Sep-17 22:58 270 2 gusting 4 23.3
2020-Sep-17 22:49 090 2 gusting 5 23.3
2020-Sep-17 22:40 180 2 gusting 6 22.8
2020-Sep-17 22:33 090 22.8
2020-Sep-17 22:22 135 23.3
2020-Sep-17 22:13 180 23.3
2020-Sep-17 22:03 225 23.3
2020-Sep-17 21:54 270 22.8
2020-Sep-17 21:46 270 0 gusting 1 22.8
2020-Sep-17 21:36 045 0 gusting 1 22.8
2020-Sep-17 21:27 22.8
2020-Sep-17 21:18 22.8
2020-Sep-17 21:09 22.8
2020-Sep-17 21:00 180 0 gusting 2 23.9
2020-Sep-17 20:52 23.9
2020-Sep-17 20:42 270 1 gusting 3 23.3
2020-Sep-17 20:33 270 0 gusting 2 23.3
2020-Sep-17 20:23 270 1 gusting 2 23.3
2020-Sep-17 20:14 270 1 gusting 2 23.3
2020-Sep-17 20:05 23.3
2020-Sep-17 19:56 270 23.3
2020-Sep-17 19:48 270 23.9
2020-Sep-17 19:40 270 23.9
2020-Sep-17 19:31 270 0 gusting 1 23.9
2020-Sep-17 19:21 270 2 gusting 2 24.4
2020-Sep-17 19:13 270 25.0
2020-Sep-17 19:03 270 1 gusting 3 25.0
2020-Sep-17 18:55 25.0
2020-Sep-17 18:46 270 0 gusting 2 25.6
2020-Sep-17 18:36 180 1 gusting 2 25.6
2020-Sep-17 18:28 270 0 gusting 1 25.6
2020-Sep-17 18:19 225 1 gusting 2 26.1
2020-Sep-17 18:10 270 0 gusting 2 26.1
2020-Sep-17 18:02 26.1
2020-Sep-17 17:52 26.7
2020-Sep-17 17:42 315 4 gusting 6 26.7
2020-Sep-17 17:34 270 2 gusting 5 26.7
2020-Sep-17 17:26 270 0 gusting 2 26.7
2020-Sep-17 17:17 270 2 gusting 4 26.7
2020-Sep-17 17:09 315 1 gusting 3 27.2
2020-Sep-17 16:59 315 1 gusting 4 27.2
2020-Sep-17 16:51 27.2
2020-Sep-17 16:42 315 3 gusting 6 27.8
2020-Sep-17 16:34 28.3
2020-Sep-17 16:24 28.3
2020-Sep-17 16:14 28.3
2020-Sep-17 16:05 28.3
2020-Sep-17 15:55 28.3
2020-Sep-17 15:46 28.3
2020-Sep-17 15:38 270 28.3
2020-Sep-17 15:30 28.3
2020-Sep-17 15:22 28.3
2020-Sep-17 15:12 090 1 gusting 2 28.3
2020-Sep-17 15:03 090 0 gusting 2 27.8
2020-Sep-17 14:54 090 2 gusting 3 27.8
2020-Sep-17 14:44 090 1 gusting 4 28.3
2020-Sep-17 14:36 090 0 gusting 4 28.3
2020-Sep-17 14:26 045 3 gusting 6 28.3
2020-Sep-17 14:17 045 2 gusting 4 28.3
2020-Sep-17 14:07 090 1 gusting 2 28.3
2020-Sep-17 13:59 270 27.8
2020-Sep-17 13:49 045 0 gusting 1 27.8
2020-Sep-17 13:40 135 0 gusting 2 27.8
2020-Sep-17 13:30 270 27.2
2020-Sep-17 13:22 090 0 gusting 2 27.8
2020-Sep-17 13:13 090 0 gusting 1 27.2
2020-Sep-17 13:04 045 0 gusting 2 27.2
2020-Sep-17 12:56 27.2
2020-Sep-17 12:46 26.7
2020-Sep-17 12:38 26.7
2020-Sep-17 12:28 090 25.6
2020-Sep-17 12:19 090 0 gusting 2 25.6
2020-Sep-17 12:09 090 0 gusting 2 25.6
2020-Sep-17 12:01 25.6
2020-Sep-17 11:53 090 0 gusting 2 25.0
2020-Sep-17 11:45 090 25.0
2020-Sep-17 11:36 25.0
2020-Sep-17 11:28 25.0
2020-Sep-17 11:19 25.0
2020-Sep-17 11:10 090 25.0
2020-Sep-17 11:00 135 0 gusting 2 25.0
2020-Sep-17 10:50 25.0
2020-Sep-17 10:41 090 0 gusting 2 25.0
2020-Sep-17 10:33 25.0
2020-Sep-17 10:24 25.0
2020-Sep-17 10:16 24.4
2020-Sep-17 10:07 24.4
2020-Sep-17 09:58 24.4
2020-Sep-17 09:50 24.4
2020-Sep-17 09:41 24.4
2020-Sep-17 09:32 23.9
2020-Sep-17 09:23 23.9
2020-Sep-17 09:14 23.3
2020-Sep-17 09:04 22.8
2020-Sep-17 08:54 22.8
2020-Sep-17 08:46 22.8
2020-Sep-17 08:38 22.8
2020-Sep-17 08:30 180 1 gusting 2 22.8
2020-Sep-17 08:21 090 0 gusting 2 22.8
2020-Sep-17 08:12 22.8
2020-Sep-17 08:03 270 0 gusting 1 22.8